Home > Products > Valid Products > TAF

000
FTUS44 KFWD 021720
TAFDFW
TAF
KDFW 021720Z 0218/0324 15007KT P6SM BKN110 BKN250=



000
FTUS44 KFWD 021720
TAFFTW
TAF
KFTW 021720Z 0218/0318 15007KT P6SM BKN110 BKN250=



000
FTUS44 KFWD 021720
TAFACT
TAF
KACT 021720Z 0218/0318 14006KT P6SM FEW250=



000
FTUS44 KFWD 021720
TAFACT
TAF
KACT 021720Z 0218/0318 14006KT P6SM FEW250=



000
FTUS44 KFWD 021720
TAFFTW
TAF
KFTW 021720Z 0218/0318 15007KT P6SM BKN110 BKN250=



000
FTUS44 KFWD 021720
TAFDFW
TAF
KDFW 021720Z 0218/0324 15007KT P6SM BKN110 BKN250=



000
FTUS44 KFWD 021509 AAA
TAFACT
TAF AMD
KACT 021509Z 0215/0312 14006KT P6SM SCT150 SCT300=



000
FTUS44 KFWD 021509 AAA
TAFDFW
TAF AMD
KDFW 021509Z 0215/0318 15007KT P6SM BKN110 BKN250=



000
FTUS44 KFWD 021509 AAA
TAFFTW
TAF AMD
KFTW 021509Z 0215/0312 15007KT P6SM BKN110 BKN250=



000
FTUS44 KFWD 021126
TAFACT
TAF
KACT 021126Z 0212/0312 12004KT P6SM BKN120
     FM021600 14006KT P6SM SCT150 SCT300=



000
FTUS44 KFWD 021126
TAFFTW
TAF
KFTW 021126Z 0212/0312 15007KT P6SM BKN110
     FM022000 12005KT P6SM SCT120 SCT300=



000
FTUS44 KFWD 021126
TAFDFW
TAF
KDFW 021126Z 0212/0318 15007KT P6SM BKN110
     FM022000 12005KT P6SM SCT120 SCT300=



000
FTUS44 KFWD 021126
TAFFTW
TAF
KFTW 021126Z 0212/0312 15007KT P6SM BKN110
     FM022000 12005KT P6SM SCT120 SCT300=



000
FTUS44 KFWD 021126
TAFACT
TAF
KACT 021126Z 0212/0312 12004KT P6SM BKN120
     FM021600 14006KT P6SM SCT150 SCT300=



000
FTUS44 KFWD 021126
TAFDFW
TAF
KDFW 021126Z 0212/0318 15007KT P6SM BKN110
     FM022000 12005KT P6SM SCT120 SCT300=



000
FTUS44 KFWD 020904 AAA
TAFFTW
TAF AMD
KFTW 020904Z 0209/0306 14006KT P6SM BKN110
     FM021600 16007KT P6SM SCT150 SCT300=



000
FTUS44 KFWD 020904 AAA
TAFACT
TAF AMD
KACT 020904Z 0209/0306 12004KT P6SM BKN110
     FM021600 14006KT P6SM SCT150 SCT300=



000
FTUS44 KFWD 020904 AAA
TAFDFW
TAF AMD
KDFW 020904Z 0209/0312 14006KT P6SM BKN110
     FM021600 16007KT P6SM SCT150 SCT300=



000
FTUS44 KFWD 020904 AAA
TAFACT
TAF AMD
KACT 020904Z 0209/0306 12004KT P6SM BKN110
     FM021600 14006KT P6SM SCT150 SCT300=



000
FTUS44 KFWD 020904 AAA
TAFDFW
TAF AMD
KDFW 020904Z 0209/0312 14006KT P6SM BKN110
     FM021600 16007KT P6SM SCT150 SCT300=



000
FTUS44 KFWD 020904 AAA
TAFFTW
TAF AMD
KFTW 020904Z 0209/0306 14006KT P6SM BKN110
     FM021600 16007KT P6SM SCT150 SCT300=



000
FTUS44 KFWD 020520
TAFACT
TAF
KACT 020520Z 0206/0306 14006KT P6SM SCT120 BKN300=



000
FTUS44 KFWD 020520
TAFFTW
TAF
KFTW 020520Z 0206/0306 14006KT P6SM SCT120 BKN300=



000
FTUS44 KFWD 020520
TAFDFW
TAF
KDFW 020520Z 0206/0312 14006KT P6SM SCT120 BKN300=



000
FTUS44 KFWD 020520
TAFACT
TAF
KACT 020520Z 0206/0306 14006KT P6SM SCT120 BKN300=



000
FTUS44 KFWD 020319 AAA
TAFACT
TAF AMD
KACT 020319Z 0203/0224 10006KT P6SM SCT120
     FM020900 15006KT P6SM SCT100 BKN250=



000
FTUS44 KFWD 020319 AAA
TAFFTW
TAF AMD
KFTW 020319Z 0203/0224 12006KT P6SM SCT120 BKN300
     FM021000 16008KT P6SM BKN100=



000
FTUS44 KFWD 020319 AAA
TAFDFW
TAF AMD
KDFW 020319Z 0203/0306 12006KT P6SM SCT120 BKN300
     FM021000 16008KT P6SM BKN100=



000
FTUS44 KFWD 012339
TAFDFW
TAF
KDFW 012339Z 0200/0306 12007KT P6SM SCT120 BKN300
     FM021000 16008KT P6SM BKN100=



000
FTUS44 KFWD 012339
TAFACT
TAF
KACT 012339Z 0200/0224 10009KT P6SM SCT120
     FM020800 15006KT P6SM SCT100=



000
FTUS44 KFWD 012339
TAFFTW
TAF
KFTW 012339Z 0200/0224 12007KT P6SM SCT120 BKN300
     FM021000 16008KT P6SM BKN100=



000
FTUS44 KFWD 012339
TAFACT
TAF
KACT 012339Z 0200/0224 10009KT P6SM SCT120
     FM020800 15006KT P6SM SCT100=



000
FTUS44 KFWD 012339
TAFDFW
TAF
KDFW 012339Z 0200/0306 12007KT P6SM SCT120 BKN300
     FM021000 16008KT P6SM BKN100=



000
FTUS44 KFWD 012339
TAFFTW
TAF
KFTW 012339Z 0200/0224 12007KT P6SM SCT120 BKN300
     FM021000 16008KT P6SM BKN100=



000
FTUS44 KFWD 012103 AAA
TAFDFW
TAF AMD
KDFW 012103Z 0121/0224 11008KT P6SM SCT110 BKN300
     FM021000 16008KT P6SM BKN120=



000
FTUS44 KFWD 012103 AAA
TAFFTW
TAF AMD
KFTW 012103Z 0121/0218 11008KT P6SM SCT110 BKN300
     FM021000 16007KT P6SM BKN120=



000
FTUS44 KFWD 012103 AAA
TAFACT
TAF AMD
KACT 012103Z 0121/0218 10009KT P6SM SCT110 SCT300
     FM020800 15005KT P6SM BKN120=



000
FTUS44 KFWD 011724
TAFFTW
TAF
KFTW 011724Z 0118/0218 11008KT P6SM SCT110 BKN300
     FM021000 16007KT P6SM BKN120=



000
FTUS44 KFWD 011724
TAFFTW
TAF
KFTW 011724Z 0118/0218 11008KT P6SM SCT110 BKN300
     FM021000 16007KT P6SM BKN120=



000
FTUS44 KFWD 011724
TAFDFW
TAF
KDFW 011724Z 0118/0224 11008KT P6SM SCT110 BKN300
     FM021000 16008KT P6SM BKN120=



000
FTUS44 KFWD 011724
TAFACT
TAF
KACT 011724Z 0118/0218 10009KT P6SM SCT110 SCT300
     FM020800 15005KT P6SM BKN120=



000
FTUS44 KFWD 011724
TAFDFW
TAF
KDFW 011724Z 0118/0224 11008KT P6SM SCT110 BKN300
     FM021000 16008KT P6SM BKN120=



000
FTUS44 KFWD 011724
TAFACT
TAF
KACT 011724Z 0118/0218 10009KT P6SM SCT110 SCT300
     FM020800 15005KT P6SM BKN120=



000
FTUS44 KFWD 011505 AAA
TAFDFW
TAF AMD
KDFW 011505Z 0115/0218 12007KT P6SM FEW060 SCT110 BKN300
     FM021500 17009KT P6SM BKN100=



000
FTUS44 KFWD 011505 AAA
TAFACT
TAF AMD
KACT 011505Z 0115/0212 10008KT P6SM SCT100 BKN300=



000
FTUS44 KFWD 011505 AAA
TAFFTW
TAF AMD
KFTW 011505Z 0115/0212 12007KT P6SM FEW060 SCT110 BKN300=



000
FTUS44 KFWD 011125
TAFFTW
TAF
KFTW 011125Z 0112/0212 13006KT P6SM FEW060 SCT150 BKN300=



000
FTUS44 KFWD 011125
TAFACT
TAF
KACT 011125Z 0112/0212 02006KT P6SM FEW150 SCT300
     FM011700 11005KT P6SM SCT100 BKN300=



000
FTUS44 KFWD 011125
TAFDFW
TAF
KDFW 011125Z 0112/0218 13006KT P6SM FEW060 SCT150 BKN300
     FM021500 17009KT P6SM BKN100=



000
FTUS44 KFWD 011125
TAFACT
TAF
KACT 011125Z 0112/0212 02006KT P6SM FEW150 SCT300
     FM011700 11005KT P6SM SCT100 BKN300=



000
FTUS44 KFWD 010851 AAA
TAFDFW
TAF AMD
KDFW 010851Z 0109/0212 12006KT P6SM FEW060 SCT110 BKN300
     FM020600 15005KT P6SM BKN250=



000
FTUS44 KFWD 010851 AAA
TAFFTW
TAF AMD
KFTW 010851Z 0109/0206 12006KT P6SM FEW060 SCT110 BKN300=



000
FTUS44 KFWD 010851 AAA
TAFDFW
TAF AMD
KDFW 010851Z 0109/0212 12006KT P6SM FEW060 SCT110 BKN300
     FM020600 15005KT P6SM BKN250=



000
FTUS44 KFWD 010851 AAA
TAFFTW
TAF AMD
KFTW 010851Z 0109/0206 12006KT P6SM FEW060 SCT110 BKN300=



000
FTUS44 KFWD 010851 AAA
TAFACT
TAF AMD
KACT 010851Z 0109/0206 10007KT P6SM FEW060 BKN300=



000
FTUS44 KFWD 010851 AAA
TAFACT
TAF AMD
KACT 010851Z 0109/0206 10007KT P6SM FEW060 BKN300=



000
FTUS44 KFWD 010520
TAFDFW
TAF
KDFW 010520Z 0106/0212 10006KT P6SM FEW120 OVC300
     FM011600 12007KT P6SM FEW060 SCT250
     FM020600 15005KT P6SM BKN250=



000
FTUS44 KFWD 010520
TAFACT
TAF
KACT 010520Z 0106/0206 08005KT P6SM BKN300
     FM011400 10007KT P6SM FEW060 SCT250=



000
FTUS44 KFWD 010520
TAFFTW
TAF
KFTW 010520Z 0106/0206 10006KT P6SM FEW120 OVC300
     FM011600 12007KT P6SM FEW060 SCT250=



000
FTUS44 KFWD 010520
TAFDFW
TAF
KDFW 010520Z 0106/0212 10006KT P6SM FEW120 OVC300
     FM011600 12007KT P6SM FEW060 SCT250
     FM020600 15005KT P6SM BKN250=



000
FTUS44 KFWD 010520
TAFFTW
TAF
KFTW 010520Z 0106/0206 10006KT P6SM FEW120 OVC300
     FM011600 12007KT P6SM FEW060 SCT250=



000
FTUS44 KFWD 010520
TAFACT
TAF
KACT 010520Z 0106/0206 08005KT P6SM BKN300
     FM011400 10007KT P6SM FEW060 SCT250=



000
FTUS44 KFWD 010258 AAB
TAFDFW
TAF AMD
KDFW 010258Z 0103/0206 08006KT P6SM FEW070 SCT120 BKN300
     FM011500 12008KT P6SM FEW060 SCT250=



000
FTUS44 KFWD 010258 AAB
TAFFTW
TAF AMD
KFTW 010258Z 0103/0124 07006KT P6SM SCT120 BKN300
      TEMPO 0103/0104 35004KT
     FM011500 12008KT P6SM FEW060 SCT250=



000
FTUS44 KFWD 010258 AAA
TAFACT
TAF AMD
KACT 010258Z 0103/0124 05005KT P6SM SCT300
     FM011400 10008KT P6SM FEW090=



000
FTUS44 KFWD 010258 AAB
TAFDFW
TAF AMD
KDFW 010258Z 0103/0206 08006KT P6SM FEW070 SCT120 BKN300
     FM011500 12008KT P6SM FEW060 SCT250=



000
FTUS44 KFWD 010258 AAB
TAFFTW
TAF AMD
KFTW 010258Z 0103/0124 07006KT P6SM SCT120 BKN300
      TEMPO 0103/0104 35004KT
     FM011500 12008KT P6SM FEW060 SCT250=



000
FTUS44 KFWD 010258 AAA
TAFACT
TAF AMD
KACT 010258Z 0103/0124 05005KT P6SM SCT300
     FM011400 10008KT P6SM FEW090=



000
FTUS44 KFWD 010146 CCA
TAFFTW
TAF COR
KFTW 010146Z 0102/0124 33012KT P6SM BKN080
     FM010400 05007KT P6SM SCT120 BKN300
     FM011500 12008KT P6SM FEW060 SCT250=



000
FTUS44 KFWD 010146 CCA
TAFFTW
TAF COR
KFTW 010146Z 0102/0124 33012KT P6SM BKN080
     FM010400 05007KT P6SM SCT120 BKN300
     FM011500 12008KT P6SM FEW060 SCT250=



000
FTUS44 KFWD 010145 CCA
TAFDFW
TAF COR
KDFW 010145Z 0102/0206 05007KT P6SM FEW120 BKN300
      TEMPO 0103/0105 32011KT
     FM011500 12008KT P6SM FEW060 SCT250=



000
FTUS44 KFWD 010142 AAA
TAFDFW
TAF AMD
KDFW 010142Z 0102/0206 32012KT P6SM FEW120 BKN300
     FM010300 05006KT P6SM FEW120 BKN300
     FM011500 12008KT P6SM FEW060 SCT250=



000
FTUS44 KFWD 010141 AAA
TAFFTW
TAF AMD
KFTW 010141Z 0102/0124 33012KT P6SM BKN080
     FM010300 05007KT P6SM SCT120 BKN300
     FM011500 12008KT P6SM FEW060 SCT250=



000
FTUS44 KFWD 312330
TAFACT
TAF
KACT 312330Z 0100/0124 08010KT P6SM FEW060
     FM011400 10008KT P6SM FEW090=



000
FTUS44 KFWD 312330
TAFFTW
TAF
KFTW 312330Z 0100/0124 08008KT P6SM FEW060 SCT120 BKN300
     FM011500 12008KT P6SM FEW060 SCT250=



000
FTUS44 KFWD 312330
TAFDFW
TAF
KDFW 312330Z 0100/0206 08008KT P6SM FEW060 SCT120 BKN300
     FM011500 12008KT P6SM FEW060 SCT250=



000
FTUS44 KFWD 312330
TAFFTW
TAF
KFTW 312330Z 0100/0124 08008KT P6SM FEW060 SCT120 BKN300
     FM011500 12008KT P6SM FEW060 SCT250=



000
FTUS44 KFWD 312330
TAFDFW
TAF
KDFW 312330Z 0100/0206 08008KT P6SM FEW060 SCT120 BKN300
     FM011500 12008KT P6SM FEW060 SCT250=



000
FTUS44 KFWD 312330
TAFACT
TAF
KACT 312330Z 0100/0124 08010KT P6SM FEW060
     FM011400 10008KT P6SM FEW090=



000
FTUS44 KFWD 312057 AAA
TAFACT
TAF AMD
KACT 312057Z 3121/0118 06010KT P6SM VCTS SCT070CB SCT100 SCT300
     FM010100 08006KT P6SM FEW100 SCT300
     FM011400 10007KT P6SM SCT090 SCT300=



000
FTUS44 KFWD 312057 AAA
TAFDFW
TAF AMD
KDFW 312057Z 3121/0124 06011KT P6SM SCT070 SCT100 SCT300
     FM010000 09007KT P6SM SCT100 SCT300=



000
FTUS44 KFWD 312057 AAB
TAFFTW
TAF AMD
KFTW 312057Z 3121/0118 06011KT P6SM VCTS SCT070CB SCT090 SCT300
     FM312300 09007KT P6SM SCT100 SCT300=



000
FTUS44 KFWD 312057 AAB
TAFFTW
TAF AMD
KFTW 312057Z 3121/0118 06011KT P6SM VCTS SCT070CB SCT090 SCT300
     FM312300 09007KT P6SM SCT100 SCT300=



000
FTUS44 KFWD 312057 AAA
TAFDFW
TAF AMD
KDFW 312057Z 3121/0124 06011KT P6SM SCT070 SCT100 SCT300
     FM010000 09007KT P6SM SCT100 SCT300=



000
FTUS44 KFWD 312057 AAA
TAFACT
TAF AMD
KACT 312057Z 3121/0118 06010KT P6SM VCTS SCT070CB SCT100 SCT300
     FM010100 08006KT P6SM FEW100 SCT300
     FM011400 10007KT P6SM SCT090 SCT300=



000
FTUS44 KFWD 312004 AAA
TAFFTW
TAF AMD
KFTW 312004Z 3120/0118 05009KT P6SM VCTS SCT070CB SCT090 SCT300
     FM010000 09007KT P6SM SCT100 SCT300=



000
FTUS44 KFWD 311720
TAFFTW
TAF
KFTW 311720Z 3118/0118 05009KT P6SM SCT060 SCT300
     FM010000 09007KT P6SM SCT100 SCT300=



000
FTUS44 KFWD 311720
TAFDFW
TAF
KDFW 311720Z 3118/0124 05009KT P6SM SCT060 SCT300
     FM010000 09007KT P6SM SCT100 SCT300=



000
FTUS44 KFWD 311720
TAFACT
TAF
KACT 311720Z 3118/0118 05009KT P6SM SCT060 SCT300
     FM011400 10007KT P6SM SCT090 SCT300=



000
FTUS44 KFWD 311720
TAFDFW
TAF
KDFW 311720Z 3118/0124 05009KT P6SM SCT060 SCT300
     FM010000 09007KT P6SM SCT100 SCT300=



000
FTUS44 KFWD 311720
TAFACT
TAF
KACT 311720Z 3118/0118 05009KT P6SM SCT060 SCT300
     FM011400 10007KT P6SM SCT090 SCT300=



000
FTUS44 KFWD 311720
TAFFTW
TAF
KFTW 311720Z 3118/0118 05009KT P6SM SCT060 SCT300
     FM010000 09007KT P6SM SCT100 SCT300=



000
FTUS44 KFWD 311502 AAA
TAFACT
TAF AMD
KACT 311502Z 3115/0112 09007KT P6SM FEW060 SCT300
     FM311800 05009KT P6SM SCT060 SCT300=



000
FTUS44 KFWD 311502 AAA
TAFFTW
TAF AMD
KFTW 311502Z 3115/0112 10008KT P6SM FEW060 SCT300
     FM311800 05009KT P6SM SCT060 SCT300
     FM010000 08007KT P6SM FEW080 SCT300=



000
FTUS44 KFWD 311502 AAA
TAFDFW
TAF AMD
KDFW 311502Z 3115/0118 10008KT P6SM FEW060 SCT300
     FM311800 05009KT P6SM SCT060 SCT300
     FM010000 08007KT P6SM FEW080 SCT300=



000
FTUS44 KFWD 311502 AAA
TAFDFW
TAF AMD
KDFW 311502Z 3115/0118 10008KT P6SM FEW060 SCT300
     FM311800 05009KT P6SM SCT060 SCT300
     FM010000 08007KT P6SM FEW080 SCT300=



000
FTUS44 KFWD 311502 AAA
TAFACT
TAF AMD
KACT 311502Z 3115/0112 09007KT P6SM FEW060 SCT300
     FM311800 05009KT P6SM SCT060 SCT300=



000
FTUS44 KFWD 311502 AAA
TAFFTW
TAF AMD
KFTW 311502Z 3115/0112 10008KT P6SM FEW060 SCT300
     FM311800 05009KT P6SM SCT060 SCT300
     FM010000 08007KT P6SM FEW080 SCT300=



000
FTUS44 KFWD 311120
TAFDFW
TAF
KDFW 311120Z 3112/0118 07009KT P6SM SCT070 SCT300=



000
FTUS44 KFWD 311120
TAFDFW
TAF
KDFW 311120Z 3112/0118 07008KT P6SM SCT060 SCT300=



000
FTUS44 KFWD 311120
TAFFTW
TAF
KFTW 311120Z 3112/0112 07008KT P6SM SCT060 SCT300=



000
FTUS44 KFWD 311120
TAFACT
TAF
KACT 311120Z 3112/0112 08008KT P6SM SCT060=



000
FTUS44 KFWD 311120
TAFFTW
TAF
KFTW 311120Z 3112/0112 07009KT P6SM SCT070 SCT300=



000
FTUS44 KFWD 310520
TAFACT
TAF
KACT 310520Z 3106/0106 07009KT P6SM SCT070=



000
FTUS44 KFWD 310520
TAFFTW
TAF
KFTW 310520Z 3106/0106 08009KT P6SM SCT070=



000
FTUS44 KFWD 310520
TAFACT
TAF
KACT 310520Z 3106/0106 07009KT P6SM SCT070=



000
FTUS44 KFWD 310520
TAFDFW
TAF
KDFW 310520Z 3106/0112 08009KT P6SM SCT070=



000
FTUS44 KFWD 310520
TAFFTW
TAF
KFTW 310520Z 3106/0106 08009KT P6SM SCT070=



000
FTUS44 KFWD 310520
TAFDFW
TAF
KDFW 310520Z 3106/0112 08009KT P6SM SCT070=



000
FTUS44 KFWD 310300 AAA
TAFDFW
TAF AMD
KDFW 310300Z 3103/0106 08009KT P6SM SCT070=



000
FTUS44 KFWD 310300 AAA
TAFACT
TAF AMD
KACT 310300Z 3103/3124 07007KT P6SM SCT070=



000
FTUS44 KFWD 310300 AAA
TAFFTW
TAF AMD
KFTW 310300Z 3103/3124 08009KT P6SM SCT070=



000
FTUS44 KFWD 302320
TAFDFW
TAF
KDFW 302320Z 3100/0106 08007KT P6SM SCT070=



000
FTUS44 KFWD 302320
TAFFTW
TAF
KFTW 302320Z 3100/3124 08007KT P6SM SCT070=



000
FTUS44 KFWD 302320
TAFACT
TAF
KACT 302320Z 3100/3124 07006KT P6SM SCT070=



000
FTUS44 KFWD 302052 AAA
TAFFTW
TAF AMD
KFTW 302052Z 3021/3118 09007KT P6SM SCT070=



000
FTUS44 KFWD 302052 AAA
TAFACT
TAF AMD
KACT 302052Z 3021/3118 11006KT P6SM SCT070
     FM310600 VRB03KT P6SM SKC
     FM311500 07007KT P6SM FEW070=



000
FTUS44 KFWD 302052 AAA
TAFDFW
TAF AMD
KDFW 302052Z 3021/3124 09007KT P6SM SCT070=



    US Dept of Commerce
    National Oceanic and Atmospheric Administration
    National Weather Service
    1325 East West Highway
    Silver Spring, MD 20910
    Page Author: NWS Internet Services Team
Disclaimer
Information Quality
Credits
Glossary
Privacy Policy
Freedom of Information Act (FOIA)
About Us
Career Opportunities